createdAt,value
2022-08-07T00:00:45.944Z,25.90
2022-08-07T00:03:36.592Z,26.00
2022-08-07T00:06:32.884Z,26.20
2022-08-07T00:09:22.647Z,26.20
2022-08-07T00:12:11.104Z,26.20
2022-08-07T00:14:59.004Z,26.10
2022-08-07T00:17:46.474Z,26.10
2022-08-07T00:20:38.639Z,26.30
2022-08-07T00:23:28.468Z,26.30
2022-08-07T00:26:31.447Z,26.30
2022-08-07T00:29:26.069Z,26.20
2022-08-07T00:32:19.106Z,26.10
2022-08-07T00:35:18.369Z,26.30
2022-08-07T00:38:10.698Z,26.30
2022-08-07T00:41:01.458Z,26.20
2022-08-07T00:44:01.182Z,26.30
2022-08-07T00:46:51.268Z,26.30
2022-08-07T00:50:21.290Z,26.40
2022-08-07T00:52:47.737Z,26.30
2022-08-07T00:56:02.290Z,26.30
2022-08-07T00:58:46.818Z,26.30
2022-08-07T01:01:44.370Z,26.30
2022-08-07T01:04:34.668Z,26.30
2022-08-07T01:07:29.648Z,26.30
2022-08-07T01:10:19.210Z,26.20
2022-08-07T01:13:06.809Z,26.30
2022-08-07T01:16:04.926Z,26.20
2022-08-07T01:18:53.484Z,26.30
2022-08-07T01:21:42.929Z,26.20
2022-08-07T01:24:32.645Z,26.10
2022-08-07T01:27:20.182Z,26.20
2022-08-07T01:30:10.763Z,26.20
2022-08-07T01:32:59.653Z,26.20
2022-08-07T01:35:53.578Z,26.30
2022-08-07T01:38:43.809Z,26.30
2022-08-07T01:41:32.657Z,26.10
2022-08-07T01:44:20.732Z,26.00
2022-08-07T01:47:14.541Z,26.00
2022-08-07T01:50:22.739Z,25.90
2022-08-07T01:54:08.541Z,25.70
2022-08-07T01:56:54.004Z,25.70
2022-08-07T02:00:13.313Z,25.80
2022-08-07T02:03:19.034Z,25.90
2022-08-07T02:06:31.666Z,25.60
2022-08-07T02:09:33.904Z,25.80
2022-08-07T02:12:36.165Z,25.60
2022-08-07T02:15:28.041Z,25.80
2022-08-07T02:18:17.765Z,25.60
2022-08-07T02:21:08.699Z,25.70
2022-08-07T02:24:06.504Z,25.70
2022-08-07T02:27:01.214Z,25.80
2022-08-07T02:29:54.086Z,25.70
2022-08-07T02:33:03.560Z,25.70
2022-08-07T02:36:30.777Z,25.70
2022-08-07T02:39:09.260Z,25.80
2022-08-07T02:42:09.800Z,25.80
2022-08-07T02:45:11.819Z,25.90
2022-08-07T02:48:15.378Z,25.90
2022-08-07T02:51:28.816Z,25.90
2022-08-07T02:54:25.197Z,25.90
2022-08-07T02:57:15.831Z,25.90
2022-08-07T03:00:10.948Z,25.90
2022-08-07T03:03:05.899Z,25.80
2022-08-07T03:12:02.809Z,25.80
2022-08-07T03:20:57.261Z,25.80
2022-08-07T03:26:58.261Z,25.80
2022-08-07T04:07:00.172Z,25.80
2022-08-07T04:09:50.729Z,25.80
2022-08-07T04:12:39.042Z,25.80
2022-08-07T04:15:28.078Z,25.80
2022-08-07T04:18:56.445Z,25.80
2022-08-07T04:21:25.226Z,25.90
2022-08-07T04:24:33.640Z,25.70
2022-08-07T04:27:25.806Z,25.70
2022-08-07T04:30:21.485Z,25.90
2022-08-07T04:33:25.300Z,25.70
2022-08-07T04:36:14.653Z,25.70
2022-08-07T04:39:04.862Z,25.80
2022-08-07T04:41:52.563Z,25.80
2022-08-07T04:44:54.547Z,25.80
2022-08-07T04:48:07.790Z,25.70
2022-08-07T04:51:12.728Z,25.80
2022-08-07T04:54:09.820Z,25.80
2022-08-07T04:58:11.508Z,25.90
2022-08-07T05:00:34.691Z,25.70
2022-08-07T05:04:07.856Z,25.80
2022-08-07T05:07:20.653Z,25.80
2022-08-07T05:10:30.871Z,25.90
2022-08-07T05:14:53.337Z,25.90
2022-08-07T05:16:56.558Z,25.80
2022-08-07T05:19:51.568Z,26.00
2022-08-07T05:22:43.377Z,25.90
2022-08-07T05:25:36.779Z,25.90
2022-08-07T05:28:48.529Z,26.10
2022-08-07T05:31:47.427Z,26.10
2022-08-07T05:34:42.034Z,26.20
2022-08-07T05:37:31.497Z,26.10
2022-08-07T05:40:29.405Z,26.40
2022-08-07T05:43:18.597Z,26.50
2022-08-07T05:46:06.926Z,26.60
2022-08-07T05:48:58.081Z,26.50
2022-08-07T05:51:47.799Z,26.60
2022-08-07T05:54:44.366Z,26.80
2022-08-07T05:57:42.987Z,26.90
2022-08-07T06:00:37.156Z,26.70
2022-08-07T06:03:47.026Z,26.80
2022-08-07T06:06:39.028Z,26.90
2022-08-07T06:09:45.127Z,27.10
2022-08-07T06:12:42.912Z,27.00
2022-08-07T06:15:38.983Z,27.30
2022-08-07T06:18:32.814Z,27.30
2022-08-07T06:22:14.759Z,27.30
2022-08-07T06:24:45.812Z,27.20
2022-08-07T06:27:43.968Z,27.40
2022-08-07T06:30:46.167Z,27.40
2022-08-07T06:33:40.793Z,27.60
2022-08-07T06:36:35.135Z,27.30
2022-08-07T06:40:13.081Z,27.40
2022-08-07T06:42:39.907Z,27.60
2022-08-07T06:45:30.082Z,27.30
2022-08-07T06:48:25.024Z,27.50
2022-08-07T06:51:31.285Z,27.40
2022-08-07T06:55:33.711Z,27.90
2022-08-07T06:57:43.438Z,28.10
2022-08-07T07:00:43.162Z,28.20
2022-08-07T07:03:48.708Z,28.30
2022-08-07T07:06:57.252Z,28.20
2022-08-07T07:09:49.180Z,27.90
2022-08-07T07:12:54.080Z,28.00
2022-08-07T07:15:56.659Z,27.70
2022-08-07T07:18:57.549Z,27.90
2022-08-07T07:22:04.633Z,27.60
2022-08-07T07:24:58.370Z,27.80
2022-08-07T07:29:38.638Z,27.90
2022-08-07T07:31:57.168Z,28.10
2022-08-07T07:34:49.356Z,28.00
2022-08-07T07:37:44.512Z,28.00
2022-08-07T07:40:37.755Z,28.30
2022-08-07T07:44:14.130Z,28.60
2022-08-07T07:46:54.221Z,29.10
2022-08-07T07:50:34.945Z,29.30
2022-08-07T07:52:58.212Z,29.60
2022-08-07T07:55:54.698Z,29.70
2022-08-07T07:58:46.995Z,29.80
2022-08-07T08:02:03.651Z,29.70
2022-08-07T08:04:56.214Z,29.90
2022-08-07T08:07:59.543Z,30.00
2022-08-07T08:10:49.190Z,29.80
2022-08-07T08:13:54.780Z,29.80
2022-08-07T08:16:49.419Z,29.40
2022-08-07T08:20:19.057Z,30.20
2022-08-07T08:23:10.176Z,29.90
2022-08-07T08:26:21.809Z,30.20
2022-08-07T08:29:16.981Z,30.10
2022-08-07T08:32:18.704Z,29.70
2022-08-07T08:35:20.267Z,29.60
2022-08-07T08:38:11.938Z,29.50
2022-08-07T08:41:22.367Z,29.80
2022-08-07T08:44:29.559Z,29.80
2022-08-07T08:47:52.651Z,29.20
2022-08-07T08:50:56.529Z,29.50
2022-08-07T08:54:06.717Z,28.90
2022-08-07T08:56:58.353Z,29.50
2022-08-07T09:00:05.084Z,29.10
2022-08-07T09:03:07.647Z,29.40
2022-08-07T09:06:33.033Z,29.70
2022-08-07T09:09:43.709Z,29.20
2022-08-07T09:13:09.642Z,29.40
2022-08-07T09:16:24.319Z,29.70
2022-08-07T09:19:53.320Z,29.70
2022-08-07T09:24:30.643Z,29.60
2022-08-07T09:26:36.301Z,29.50
2022-08-07T09:30:08.512Z,29.60
2022-08-07T09:33:52.727Z,29.70
2022-08-07T09:37:11.889Z,29.70
2022-08-07T09:40:40.408Z,29.60
2022-08-07T09:44:05.792Z,29.70
2022-08-07T09:48:00.120Z,30.20
2022-08-07T09:52:09.361Z,30.30
2022-08-07T09:54:40.813Z,30.30
2022-08-07T09:58:01.531Z,30.90
2022-08-07T10:01:50.650Z,30.80
2022-08-07T10:05:12.607Z,31.20
2022-08-07T10:08:45.403Z,31.40
2022-08-07T10:12:39.695Z,31.30
2022-08-07T10:15:44.325Z,31.60
2022-08-07T10:19:23.318Z,31.70
2022-08-07T10:22:53.847Z,31.20
2022-08-07T10:26:17.736Z,31.60
2022-08-07T10:29:59.326Z,31.40
2022-08-07T10:32:59.652Z,31.80
2022-08-07T10:36:18.052Z,31.50
2022-08-07T10:40:02.578Z,31.40
2022-08-07T10:43:01.983Z,31.10
2022-08-07T10:45:58.736Z,31.20
2022-08-07T10:48:58.229Z,31.70
2022-08-07T10:52:02.292Z,31.50
2022-08-07T10:55:26.803Z,31.70
2022-08-07T10:58:59.842Z,31.60
2022-08-07T11:02:04.765Z,31.10
2022-08-07T11:05:35.887Z,31.70
2022-08-07T11:09:10.984Z,31.60
2022-08-07T11:12:31.986Z,31.40
2022-08-07T11:15:31.780Z,31.40
2022-08-07T11:18:35.533Z,31.40
2022-08-07T11:22:04.852Z,32.00
2022-08-07T11:25:28.206Z,32.60
2022-08-07T11:28:39.210Z,32.70
2022-08-07T11:32:05.742Z,32.30
2022-08-07T11:34:59.994Z,32.70
2022-08-07T11:38:12.689Z,31.20
2022-08-07T11:41:22.327Z,31.50
2022-08-07T11:45:05.562Z,31.90
2022-08-07T11:48:29.255Z,32.10
2022-08-07T11:51:59.156Z,31.70
2022-08-07T11:55:18.591Z,31.80
2022-08-07T11:58:49.605Z,32.30
2022-08-07T12:02:30.437Z,31.80
2022-08-07T12:05:28.520Z,31.90
2022-08-07T12:08:58.365Z,31.80
2022-08-07T12:12:11.675Z,32.20
2022-08-07T12:15:17.286Z,31.90
2022-08-07T12:18:56.263Z,32.20
2022-08-07T12:22:55.883Z,32.20
2022-08-07T12:26:28.930Z,32.30
2022-08-07T12:29:42.741Z,32.90
2022-08-07T12:32:53.679Z,32.30
2022-08-07T12:35:42.931Z,32.50
2022-08-07T12:38:43.294Z,32.40
2022-08-07T12:41:51.746Z,32.70
2022-08-07T12:44:46.561Z,32.10
2022-08-07T12:48:28.223Z,32.20
2022-08-07T12:51:50.937Z,32.60
2022-08-07T12:55:03.753Z,32.40
2022-08-07T12:58:02.274Z,32.70
2022-08-07T13:01:40.239Z,32.40
2022-08-07T13:05:01.609Z,32.50
2022-08-07T13:08:26.215Z,32.40
2022-08-07T13:12:03.047Z,32.30
2022-08-07T13:15:34.480Z,32.50
2022-08-07T13:18:50.685Z,32.60
2022-08-07T13:22:02.015Z,33.00
2022-08-07T13:25:00.181Z,32.70
2022-08-07T13:28:25.203Z,32.80
2022-08-07T13:31:54.799Z,32.80
2022-08-07T13:35:08.471Z,33.20
2022-08-07T13:38:42.194Z,33.00
2022-08-07T13:41:54.663Z,33.50
2022-08-07T13:44:45.044Z,33.50
2022-08-07T13:48:07.865Z,33.50
2022-08-07T13:51:01.368Z,33.10
2022-08-07T13:54:09.099Z,33.00
2022-08-07T13:57:14.576Z,32.80
2022-08-07T14:00:26.400Z,32.90
2022-08-07T14:03:29.882Z,32.70
2022-08-07T14:06:34.507Z,32.50
2022-08-07T14:10:02.956Z,32.40
2022-08-07T14:12:49.195Z,32.30
2022-08-07T14:15:50.519Z,32.30
2022-08-07T14:19:01.045Z,32.00
2022-08-07T14:22:04.200Z,31.90
2022-08-07T14:25:15.872Z,32.00
2022-08-07T14:28:13.598Z,31.90
2022-08-07T14:31:02.469Z,32.10
2022-08-07T14:33:53.876Z,31.30
2022-08-07T14:36:56.049Z,31.30
2022-08-07T14:40:16.042Z,31.50
2022-08-07T14:43:57.782Z,31.50
2022-08-07T14:46:11.857Z,31.40
2022-08-07T14:49:55.872Z,31.30
2022-08-07T14:52:22.332Z,31.50
2022-08-07T14:55:17.666Z,31.80
2022-08-07T14:58:07.437Z,31.60
2022-08-07T15:01:22.762Z,31.70
2022-08-07T15:04:11.793Z,31.10
2022-08-07T15:07:00.803Z,31.50
2022-08-07T15:09:59.769Z,31.40
2022-08-07T15:13:05.932Z,31.40
2022-08-07T15:16:03.544Z,31.50
2022-08-07T15:19:02.342Z,31.60
2022-08-07T15:22:04.159Z,31.30
2022-08-07T15:28:33.041Z,31.20
2022-08-07T15:38:17.567Z,31.10
2022-08-07T15:41:22.888Z,30.80
2022-08-07T15:44:07.268Z,30.90
2022-08-07T15:53:52.362Z,30.70
2022-08-07T15:56:42.283Z,30.40
2022-08-07T15:59:39.814Z,30.50
2022-08-07T16:02:46.594Z,30.70
2022-08-07T16:05:36.977Z,30.50
2022-08-07T16:08:30.419Z,30.80
2022-08-07T16:11:54.703Z,30.70
2022-08-07T16:15:10.732Z,30.60
2022-08-07T16:18:58.540Z,30.60
2022-08-07T16:22:33.957Z,30.70
2022-08-07T16:25:53.998Z,30.20
2022-08-07T16:30:09.209Z,30.20
2022-08-07T16:32:34.726Z,30.20
2022-08-07T16:35:51.806Z,30.20
2022-08-07T16:39:33.870Z,29.80
2022-08-07T16:42:55.218Z,30.00
2022-08-07T16:50:28.442Z,29.80
2022-08-07T16:54:01.738Z,29.60
2022-08-07T16:56:54.464Z,29.60
2022-08-07T16:59:48.154Z,29.60
2022-08-07T17:03:17.747Z,29.50
2022-08-07T17:07:02.762Z,29.70
2022-08-07T17:10:07.888Z,29.50
2022-08-07T17:13:15.904Z,29.40
2022-08-07T17:16:09.654Z,29.30
2022-08-07T17:19:16.245Z,29.20
2022-08-07T17:22:16.340Z,29.10
2022-08-07T17:25:20.311Z,29.10
2022-08-07T17:30:12.858Z,29.00
2022-08-07T17:32:36.700Z,28.90
2022-08-07T17:36:11.994Z,29.00
2022-08-07T17:39:17.802Z,28.80
2022-08-07T17:42:12.893Z,28.70
2022-08-07T17:45:15.092Z,28.70
2022-08-07T17:48:11.139Z,28.70
2022-08-07T17:51:13.450Z,28.60
2022-08-07T17:54:29.860Z,28.30
2022-08-07T17:58:30.570Z,28.30
2022-08-07T18:01:42.408Z,28.30
2022-08-07T18:05:10.561Z,28.30
2022-08-07T18:08:31.178Z,28.30
2022-08-07T18:12:17.384Z,28.10
2022-08-07T18:15:01.287Z,28.00
2022-08-07T18:19:02.683Z,28.00
2022-08-07T18:21:57.895Z,27.90
2022-08-07T18:25:01.679Z,27.80
2022-08-07T18:28:34.016Z,27.90
2022-08-07T18:31:52.513Z,28.10
2022-08-07T18:35:03.110Z,28.10
2022-08-07T18:38:57.834Z,28.20
2022-08-07T18:41:56.220Z,28.20
2022-08-07T18:45:43.006Z,28.10
2022-08-07T18:50:29.889Z,28.20
2022-08-07T18:52:41.221Z,28.20
2022-08-07T18:56:31.881Z,28.10
2022-08-07T18:59:47.276Z,28.10
2022-08-07T19:03:15.955Z,28.00
2022-08-07T19:06:17.668Z,28.00
2022-08-07T19:09:56.322Z,28.00
2022-08-07T19:12:53.465Z,27.90
2022-08-07T19:17:00.355Z,27.90
2022-08-07T19:20:03.697Z,27.80
2022-08-07T19:23:02.001Z,27.40
2022-08-07T19:26:22.609Z,27.40
2022-08-07T19:31:01.704Z,27.50
2022-08-07T19:32:39.544Z,27.50
2022-08-07T19:35:33.751Z,27.40
2022-08-07T19:38:27.840Z,27.30
2022-08-07T19:41:44.568Z,27.40
2022-08-07T19:44:41.104Z,27.30
2022-08-07T19:47:32.032Z,27.40
2022-08-07T19:50:40.788Z,27.30
2022-08-07T19:54:32.883Z,27.20
2022-08-07T19:57:52.083Z,27.20
2022-08-07T20:00:28.485Z,27.10
2022-08-07T20:03:35.592Z,27.00
2022-08-07T20:06:32.890Z,26.80
2022-08-07T20:10:33.713Z,26.80
2022-08-07T20:12:40.178Z,26.80
2022-08-07T20:15:37.087Z,26.90
2022-08-07T20:18:32.709Z,26.90
2022-08-07T20:21:22.755Z,26.90
2022-08-07T20:24:19.529Z,26.80
2022-08-07T20:27:11.652Z,26.90
2022-08-07T20:30:02.251Z,26.80
2022-08-07T20:32:59.760Z,26.90
2022-08-07T20:35:51.826Z,26.90
2022-08-07T20:39:00.497Z,26.80
2022-08-07T20:41:54.932Z,26.90
2022-08-07T20:44:49.540Z,26.90
2022-08-07T20:47:56.252Z,26.90
2022-08-07T20:50:46.318Z,26.90
2022-08-07T20:54:02.936Z,26.90
2022-08-07T20:56:52.808Z,26.90
2022-08-07T21:00:08.251Z,26.90
2022-08-07T21:02:59.972Z,26.90
2022-08-07T21:06:21.637Z,26.90
2022-08-07T21:09:18.495Z,26.90
2022-08-07T21:12:15.241Z,27.10
2022-08-07T21:15:18.653Z,27.20
2022-08-07T21:18:20.207Z,27.40
2022-08-07T21:21:17.637Z,27.50
2022-08-07T21:24:15.311Z,27.50
2022-08-07T21:27:47.337Z,27.50
2022-08-07T21:31:12.635Z,27.50
2022-08-07T21:34:32.833Z,27.40
2022-08-07T21:37:58.079Z,27.30
2022-08-07T21:41:21.704Z,27.30
2022-08-07T21:44:45.002Z,27.20
2022-08-07T21:48:27.934Z,27.20
2022-08-07T21:51:32.023Z,27.20
2022-08-07T21:54:35.121Z,26.90
2022-08-07T21:57:51.974Z,26.90
2022-08-07T22:00:50.060Z,26.90
2022-08-07T22:04:00.512Z,26.80
2022-08-07T22:07:31.568Z,26.80
2022-08-07T22:10:35.656Z,26.80
2022-08-07T22:13:50.400Z,26.70
2022-08-07T22:16:46.889Z,26.60
2022-08-07T22:20:23.208Z,26.50
2022-08-07T22:23:40.185Z,26.40
2022-08-07T22:26:46.908Z,26.40
2022-08-07T22:29:54.570Z,26.40
2022-08-07T22:33:09.314Z,26.20
2022-08-07T22:36:04.844Z,26.20
2022-08-07T22:39:26.169Z,26.10
2022-08-07T22:42:39.054Z,26.10
2022-08-07T22:47:03.977Z,26.10
2022-08-07T22:49:57.458Z,25.90
2022-08-07T22:53:06.429Z,25.90
2022-08-07T22:56:09.538Z,25.90
2022-08-07T22:59:23.053Z,25.80
2022-08-07T23:03:01.084Z,25.80
2022-08-07T23:06:08.902Z,25.80
2022-08-07T23:10:05.863Z,25.90
2022-08-07T23:13:29.250Z,25.90
2022-08-07T23:16:43.272Z,25.70
2022-08-07T23:20:40.695Z,25.60
2022-08-07T23:24:30.032Z,25.80
2022-08-07T23:28:21.281Z,25.80
2022-08-07T23:32:49.639Z,25.80
2022-08-07T23:35:07.668Z,25.80
2022-08-07T23:38:36.840Z,25.90
2022-08-07T23:42:04.050Z,25.90
2022-08-07T23:45:33.132Z,25.80
2022-08-07T23:48:54.249Z,25.80
2022-08-07T23:53:05.506Z,25.70
2022-08-07T23:55:52.932Z,25.40
